createdAt,value
2018-10-07T00:00:45.527Z,19.10
2018-10-07T00:03:14.502Z,18.96
2018-10-07T00:05:43.531Z,18.95
2018-10-07T00:08:12.492Z,18.93
2018-10-07T00:10:41.581Z,18.89
2018-10-07T00:13:10.551Z,18.84
2018-10-07T00:15:39.626Z,18.84
2018-10-07T00:18:08.568Z,18.83
2018-10-07T00:20:37.539Z,18.82
2018-10-07T00:23:06.626Z,18.81
2018-10-07T00:25:35.551Z,18.76
2018-10-07T00:28:04.622Z,18.76
2018-10-07T00:30:33.554Z,18.78
2018-10-07T00:33:02.553Z,18.75
2018-10-07T00:35:31.502Z,18.71
2018-10-07T00:38:00.451Z,18.67
2018-10-07T00:40:29.395Z,18.53
2018-10-07T00:42:58.346Z,18.49
2018-10-07T00:45:27.834Z,18.48
2018-10-07T00:47:56.818Z,18.48
2018-10-07T00:50:25.766Z,18.46
2018-10-07T00:52:54.704Z,18.45
2018-10-07T00:55:23.639Z,18.43
2018-10-07T00:57:52.665Z,18.38
2018-10-07T01:00:21.894Z,18.38
2018-10-07T01:02:50.841Z,18.40
2018-10-07T01:05:19.817Z,18.41
2018-10-07T01:07:48.786Z,18.43
2018-10-07T01:10:17.823Z,18.44
2018-10-07T01:12:46.786Z,18.41
2018-10-07T01:15:15.761Z,18.40
2018-10-07T01:17:44.755Z,18.45
2018-10-07T01:20:13.750Z,18.44
2018-10-07T01:22:42.864Z,18.41
2018-10-07T01:25:11.847Z,18.44
2018-10-07T01:27:40.935Z,18.36
2018-10-07T01:30:09.998Z,18.25
2018-10-07T01:32:38.983Z,18.19
2018-10-07T01:35:08.027Z,18.03
2018-10-07T01:37:37.079Z,17.98
2018-10-07T01:40:06.115Z,17.92
2018-10-07T01:42:35.096Z,17.75
2018-10-07T01:45:04.074Z,17.75
2018-10-07T01:47:33.175Z,17.77
2018-10-07T01:50:02.143Z,17.78
2018-10-07T01:52:31.168Z,17.48
2018-10-07T01:55:00.150Z,17.40
2018-10-07T01:57:29.245Z,17.40
2018-10-07T01:59:58.281Z,17.12
2018-10-07T02:02:27.260Z,17.24
2018-10-07T02:04:56.239Z,17.12
2018-10-07T02:07:25.331Z,16.79
2018-10-07T02:09:54.315Z,16.80
2018-10-07T02:12:23.323Z,16.72
2018-10-07T02:14:52.278Z,16.75
2018-10-07T02:17:21.348Z,16.36
2018-10-07T02:19:50.340Z,16.31
2018-10-07T02:22:19.283Z,16.01
2018-10-07T02:24:48.268Z,15.59
2018-10-07T02:27:17.198Z,15.62
2018-10-07T02:29:46.219Z,15.74
2018-10-07T02:32:15.139Z,15.58
2018-10-07T02:34:44.127Z,15.60
2018-10-07T02:37:13.073Z,15.59
2018-10-07T02:39:42.031Z,15.57
2018-10-07T02:42:11.003Z,15.35
2018-10-07T02:44:39.973Z,15.10
2018-10-07T02:47:08.995Z,15.03
2018-10-07T02:49:38.003Z,15.16
2018-10-07T02:52:07.799Z,15.29
2018-10-07T02:54:36.759Z,15.28
2018-10-07T02:57:05.711Z,15.23
2018-10-07T02:59:34.671Z,15.36
2018-10-07T03:02:03.614Z,15.03
2018-10-07T03:04:32.580Z,15.05
2018-10-07T03:07:01.587Z,15.25
2018-10-07T03:09:30.554Z,15.16
2018-10-07T03:11:59.552Z,15.05
2018-10-07T03:14:28.554Z,14.91
2018-10-07T03:16:57.479Z,15.05
2018-10-07T03:19:26.562Z,15.19
2018-10-07T03:21:55.520Z,14.54
2018-10-07T03:24:24.543Z,14.33
2018-10-07T03:26:53.534Z,14.01
2018-10-07T03:29:22.524Z,14.18
2018-10-07T03:31:51.514Z,13.94
2018-10-07T03:34:20.501Z,13.66
2018-10-07T03:36:49.459Z,13.48
2018-10-07T03:39:18.433Z,13.67
2018-10-07T03:41:47.380Z,13.56
2018-10-07T03:44:16.355Z,13.28
2018-10-07T03:46:45.306Z,13.33
2018-10-07T03:49:14.270Z,13.03
2018-10-07T03:51:43.214Z,13.19
2018-10-07T03:54:12.193Z,13.17
2018-10-07T03:56:41.126Z,13.07
2018-10-07T03:59:10.091Z,13.02
2018-10-07T04:01:39.055Z,13.23
2018-10-07T04:04:08.018Z,13.17
2018-10-07T04:06:36.978Z,12.94
2018-10-07T04:09:08.306Z,13.33
2018-10-07T04:11:37.282Z,13.57
2018-10-07T04:14:06.351Z,13.13
2018-10-07T04:16:35.321Z,13.46
2018-10-07T04:19:04.326Z,13.17
2018-10-07T04:21:33.302Z,12.80
2018-10-07T04:24:02.670Z,13.18
2018-10-07T04:26:31.774Z,13.18
2018-10-07T04:29:01.060Z,12.92
2018-10-07T04:31:30.015Z,12.91
2018-10-07T04:33:58.968Z,12.85
2018-10-07T04:36:27.931Z,13.15
2018-10-07T04:38:56.878Z,13.02
2018-10-07T04:41:25.863Z,12.96
2018-10-07T04:43:54.827Z,13.31
2018-10-07T04:46:23.838Z,13.48
2018-10-07T04:48:52.750Z,13.55
2018-10-07T04:51:21.726Z,13.68
2018-10-07T04:53:50.670Z,13.71
2018-10-07T04:56:19.623Z,13.62
2018-10-07T04:58:48.581Z,13.37
2018-10-07T05:01:17.546Z,13.16
2018-10-07T05:03:46.564Z,13.43
2018-10-07T05:06:15.803Z,13.26
2018-10-07T05:08:44.819Z,13.28
2018-10-07T05:11:13.803Z,13.33
2018-10-07T05:13:50.787Z,13.19
2018-10-07T05:16:25.063Z,12.86
2018-10-07T05:18:54.011Z,12.86
2018-10-07T05:21:22.983Z,12.84
2018-10-07T05:23:51.926Z,12.68
2018-10-07T05:26:20.891Z,12.76
2018-10-07T05:28:49.825Z,12.82
2018-10-07T05:31:18.787Z,12.76
2018-10-07T05:33:47.778Z,12.87
2018-10-07T05:36:16.764Z,12.75
2018-10-07T05:38:45.729Z,12.61
2018-10-07T05:41:14.707Z,12.52
2018-10-07T05:43:43.651Z,12.71
2018-10-07T05:46:12.916Z,12.63
2018-10-07T05:48:41.935Z,12.54
2018-10-07T05:51:10.915Z,12.40
2018-10-07T05:53:39.879Z,12.54
2018-10-07T05:56:08.858Z,12.76
2018-10-07T05:58:38.547Z,12.92
2018-10-07T06:01:11.028Z,12.79
2018-10-07T06:04:23.956Z,12.84
2018-10-07T06:06:54.351Z,12.88
2018-10-07T06:09:26.259Z,12.80
2018-10-07T06:11:55.890Z,12.72
2018-10-07T06:14:36.204Z,12.63
2018-10-07T06:17:05.427Z,12.41
2018-10-07T06:19:34.390Z,11.95
2018-10-07T06:22:04.635Z,12.15
2018-10-07T06:24:34.325Z,12.21
2018-10-07T06:27:03.542Z,11.97
2018-10-07T06:29:32.507Z,12.09
2018-10-07T06:32:01.501Z,11.30
2018-10-07T06:34:30.459Z,11.72
2018-10-07T06:36:59.456Z,11.66
2018-10-07T06:39:28.407Z,11.74
2018-10-07T06:41:57.370Z,12.04
2018-10-07T06:44:26.328Z,12.05
2018-10-07T06:46:55.303Z,12.14
2018-10-07T06:49:24.263Z,12.21
2018-10-07T06:51:53.226Z,12.33
2018-10-07T06:54:22.183Z,12.25
2018-10-07T06:56:51.349Z,12.39
2018-10-07T06:59:20.310Z,12.51
2018-10-07T07:01:49.288Z,12.57
2018-10-07T07:04:18.402Z,12.57
2018-10-07T07:06:47.373Z,12.47
2018-10-07T07:09:16.330Z,12.47
2018-10-07T07:11:46.240Z,12.38
2018-10-07T07:14:15.194Z,12.53
2018-10-07T07:16:44.182Z,12.39
2018-10-07T07:19:13.143Z,12.36
2018-10-07T07:21:42.114Z,12.40
2018-10-07T07:24:11.074Z,11.61
2018-10-07T07:26:40.053Z,11.46
2018-10-07T07:29:08.993Z,11.71
2018-10-07T07:31:37.970Z,12.01
2018-10-07T07:34:07.791Z,12.07
2018-10-07T07:36:37.039Z,12.12
2018-10-07T07:39:06.799Z,12.03
2018-10-07T07:41:35.787Z,11.82
2018-10-07T07:44:04.743Z,11.83
2018-10-07T07:46:33.787Z,11.88
2018-10-07T07:49:02.791Z,12.07
2018-10-07T07:51:31.754Z,11.90
2018-10-07T07:54:00.762Z,11.87
2018-10-07T07:56:29.718Z,12.17
2018-10-07T07:58:59.498Z,12.37
2018-10-07T08:01:28.491Z,12.25
2018-10-07T08:03:57.454Z,12.02
2018-10-07T08:06:26.418Z,12.51
2018-10-07T08:08:55.516Z,12.87
2018-10-07T08:11:24.618Z,12.95
2018-10-07T08:13:53.587Z,12.85
2018-10-07T08:16:22.542Z,13.09
2018-10-07T08:18:51.507Z,12.92
2018-10-07T08:21:20.522Z,12.43
2018-10-07T08:23:49.509Z,12.66
2018-10-07T08:26:18.454Z,12.34
2018-10-07T08:28:47.406Z,12.28
2018-10-07T08:31:16.373Z,12.68
2018-10-07T08:33:45.335Z,12.57
2018-10-07T08:36:14.383Z,12.64
2018-10-07T08:38:43.319Z,12.53
2018-10-07T08:41:12.351Z,12.32
2018-10-07T08:43:41.322Z,12.72
2018-10-07T08:46:10.810Z,12.79
2018-10-07T08:48:39.762Z,13.09
2018-10-07T08:51:08.698Z,13.05
2018-10-07T08:53:37.760Z,12.98
2018-10-07T08:56:06.744Z,13.46
2018-10-07T08:58:35.703Z,13.65
2018-10-07T09:01:04.733Z,13.74
2018-10-07T09:03:33.675Z,13.60
2018-10-07T09:06:02.675Z,13.13
2018-10-07T09:08:31.626Z,13.58
2018-10-07T09:11:00.706Z,13.04
2018-10-07T09:13:29.662Z,13.05
2018-10-07T09:16:00.081Z,13.44
2018-10-07T09:18:30.138Z,13.60
2018-10-07T09:21:00.139Z,13.27
2018-10-07T09:23:29.161Z,13.30
2018-10-07T09:25:58.102Z,13.30
2018-10-07T09:28:27.163Z,13.44
2018-10-07T09:30:56.171Z,13.43
2018-10-07T09:33:25.160Z,13.60
2018-10-07T09:35:58.438Z,13.68
2018-10-07T09:38:27.638Z,13.79
2018-10-07T09:40:56.662Z,14.07
2018-10-07T09:43:25.887Z,14.06
2018-10-07T09:45:55.368Z,14.19
2018-10-07T09:48:24.444Z,14.31
2018-10-07T09:50:53.733Z,14.19
2018-10-07T09:53:22.839Z,14.30
2018-10-07T09:55:52.236Z,14.10
2018-10-07T09:58:21.295Z,14.16
2018-10-07T10:00:50.434Z,14.14
2018-10-07T10:03:19.689Z,14.54
2018-10-07T10:05:48.894Z,14.51
2018-10-07T10:08:18.018Z,14.15
2018-10-07T10:10:47.235Z,13.79
2018-10-07T10:13:16.214Z,13.64
2018-10-07T10:15:45.202Z,13.75
2018-10-07T10:18:24.670Z,14.00
2018-10-07T10:20:57.438Z,13.70
2018-10-07T10:23:35.595Z,14.25
2018-10-07T10:26:11.247Z,14.20
2018-10-07T10:29:17.894Z,14.21
2018-10-07T10:31:59.222Z,14.59
2018-10-07T10:34:54.256Z,14.79
2018-10-07T10:37:29.670Z,14.55
2018-10-07T10:40:01.264Z,14.77
2018-10-07T10:43:37.572Z,14.89
2018-10-07T10:46:13.574Z,14.83
2018-10-07T10:50:55.462Z,15.00
2018-10-07T10:53:36.052Z,14.70
2018-10-07T10:56:13.482Z,15.11
2018-10-07T10:59:51.658Z,15.35
2018-10-07T11:02:30.787Z,15.25
2018-10-07T11:06:15.586Z,15.10
2018-10-07T11:08:49.446Z,14.91
2018-10-07T11:11:27.550Z,14.46
2018-10-07T11:14:02.966Z,15.08
2018-10-07T11:16:46.749Z,15.23
2018-10-07T11:19:22.642Z,15.29
2018-10-07T11:22:00.102Z,15.07
2018-10-07T11:25:38.797Z,15.17
2018-10-07T11:28:19.825Z,15.18
2018-10-07T11:31:02.363Z,15.49
2018-10-07T11:34:11.010Z,15.46
2018-10-07T11:36:46.018Z,15.56
2018-10-07T11:39:36.942Z,15.41
2018-10-07T11:42:10.340Z,15.67
2018-10-07T11:44:54.657Z,15.98
2018-10-07T11:47:29.567Z,16.05
2018-10-07T11:50:06.963Z,15.89
2018-10-07T11:52:42.138Z,15.82
2018-10-07T11:55:10.150Z,15.47
2018-10-07T11:57:39.326Z,15.49
2018-10-07T12:00:08.455Z,15.90
2018-10-07T12:02:38.595Z,15.98
2018-10-07T12:05:07.654Z,15.96
2018-10-07T12:07:36.934Z,16.26
2018-10-07T12:10:05.935Z,15.93
2018-10-07T12:12:35.143Z,16.21
2018-10-07T12:15:04.415Z,15.75
2018-10-07T12:17:33.692Z,15.62
2018-10-07T12:20:02.933Z,15.94
2018-10-07T12:22:32.159Z,16.04
2018-10-07T12:25:01.328Z,15.91
2018-10-07T12:27:30.823Z,16.05
2018-10-07T12:29:59.854Z,16.04
2018-10-07T12:32:29.485Z,16.18
2018-10-07T12:34:58.433Z,16.47
2018-10-07T12:37:27.666Z,16.62
2018-10-07T12:39:56.788Z,16.70
2018-10-07T12:42:25.830Z,16.88
2018-10-07T12:44:54.926Z,16.46
2018-10-07T12:47:23.958Z,16.47
2018-10-07T12:49:53.340Z,16.52
2018-10-07T12:52:22.742Z,16.05
2018-10-07T12:54:51.731Z,16.05
2018-10-07T12:57:20.690Z,16.44
2018-10-07T12:59:52.967Z,15.96
2018-10-07T13:02:22.006Z,16.15
2018-10-07T13:04:50.938Z,16.38
2018-10-07T13:07:19.880Z,16.63
2018-10-07T13:09:48.848Z,16.83
2018-10-07T13:12:17.830Z,16.72
2018-10-07T13:14:46.790Z,16.56
2018-10-07T13:17:15.754Z,16.47
2018-10-07T13:19:44.682Z,16.62
2018-10-07T13:22:13.638Z,16.79
2018-10-07T13:24:42.581Z,16.82
2018-10-07T13:27:11.580Z,16.51
2018-10-07T13:29:40.531Z,16.55
2018-10-07T13:32:09.551Z,16.47
2018-10-07T13:34:38.524Z,16.52
2018-10-07T13:37:07.458Z,16.74
2018-10-07T13:39:38.244Z,17.10
2018-10-07T13:42:07.383Z,17.30
2018-10-07T13:44:36.392Z,16.92
2018-10-07T13:47:06.370Z,16.87
2018-10-07T13:49:35.357Z,16.80
2018-10-07T13:52:05.924Z,16.93
2018-10-07T13:54:35.034Z,16.91
2018-10-07T13:57:03.986Z,16.65
2018-10-07T13:59:32.934Z,16.65
2018-10-07T14:02:01.974Z,16.85
2018-10-07T14:04:30.913Z,17.08
2018-10-07T14:07:00.031Z,17.19
2018-10-07T14:09:29.026Z,17.28
2018-10-07T14:11:58.016Z,16.70
2018-10-07T14:14:26.981Z,16.52
2018-10-07T14:16:55.972Z,16.80
2018-10-07T14:19:24.958Z,16.76
2018-10-07T14:21:53.919Z,16.64
2018-10-07T14:24:22.950Z,16.09
2018-10-07T14:26:51.895Z,16.34
2018-10-07T14:29:20.871Z,16.61
2018-10-07T14:31:49.843Z,16.52
2018-10-07T14:34:18.804Z,16.44
2018-10-07T14:36:47.746Z,16.77
2018-10-07T14:39:16.809Z,16.65
2018-10-07T14:41:45.711Z,16.93
2018-10-07T14:44:14.691Z,16.43
2018-10-07T14:46:43.702Z,16.12
2018-10-07T14:49:12.707Z,16.02
2018-10-07T14:51:41.654Z,16.37
2018-10-07T14:54:10.641Z,16.57
2018-10-07T14:56:39.610Z,16.79
2018-10-07T14:59:08.590Z,16.84
2018-10-07T15:01:37.561Z,16.62
2018-10-07T15:04:06.895Z,16.75
2018-10-07T15:06:35.859Z,16.76
2018-10-07T15:09:06.830Z,16.76
2018-10-07T15:11:35.786Z,16.82
2018-10-07T15:14:04.779Z,16.77
2018-10-07T15:16:33.751Z,16.71
2018-10-07T15:19:02.782Z,16.44
2018-10-07T15:21:31.725Z,16.51
2018-10-07T15:24:00.689Z,16.35
2018-10-07T15:26:29.696Z,16.53
2018-10-07T15:28:58.771Z,16.65
2018-10-07T15:31:27.821Z,16.47
2018-10-07T15:33:56.748Z,16.51
2018-10-07T15:36:25.880Z,16.68
2018-10-07T15:38:54.810Z,16.33
2018-10-07T15:41:23.830Z,16.25
2018-10-07T15:43:52.842Z,16.40
2018-10-07T15:46:21.809Z,16.64
2018-10-07T15:48:50.770Z,16.57
2018-10-07T15:51:19.743Z,16.72
2018-10-07T15:53:48.756Z,16.77
2018-10-07T15:56:17.722Z,16.74
2018-10-07T15:58:46.692Z,16.27
2018-10-07T16:01:15.688Z,16.28
2018-10-07T16:03:44.743Z,15.90
2018-10-07T16:06:13.751Z,15.84
2018-10-07T16:08:42.807Z,15.91
2018-10-07T16:11:11.872Z,16.00
2018-10-07T16:13:40.916Z,16.10
2018-10-07T16:16:10.159Z,16.06
2018-10-07T16:18:39.318Z,16.15
2018-10-07T16:21:08.326Z,16.27
2018-10-07T16:23:37.304Z,16.30
2018-10-07T16:26:06.340Z,16.34
2018-10-07T16:28:35.302Z,16.31
2018-10-07T16:31:04.320Z,16.29
2018-10-07T16:33:33.341Z,16.17
2018-10-07T16:36:02.279Z,16.01
2018-10-07T16:38:31.659Z,15.90
2018-10-07T16:41:00.675Z,15.86
2018-10-07T16:43:29.627Z,15.92
2018-10-07T16:45:58.751Z,15.88
2018-10-07T16:48:28.048Z,15.88
2018-10-07T16:50:57.021Z,15.92
2018-10-07T16:53:25.992Z,15.90
2018-10-07T16:55:54.991Z,15.88
2018-10-07T16:58:24.098Z,15.93
2018-10-07T17:00:53.129Z,15.93
2018-10-07T17:03:22.144Z,15.94
2018-10-07T17:05:51.144Z,15.94
2018-10-07T17:08:20.166Z,16.01
2018-10-07T17:10:49.164Z,16.08
2018-10-07T17:13:18.168Z,16.09
2018-10-07T17:15:47.277Z,16.08
2018-10-07T17:18:16.243Z,16.00
2018-10-07T17:20:45.242Z,15.93
2018-10-07T17:23:14.238Z,15.81
2018-10-07T17:25:43.318Z,15.81
2018-10-07T17:28:12.351Z,15.83
2018-10-07T17:30:41.295Z,15.80
2018-10-07T17:33:11.301Z,15.82
2018-10-07T17:35:40.384Z,15.79
2018-10-07T17:38:09.376Z,15.81
2018-10-07T17:40:38.370Z,15.80
2018-10-07T17:43:07.384Z,15.78
2018-10-07T17:45:36.354Z,15.80
2018-10-07T17:48:05.341Z,15.78
2018-10-07T17:50:34.304Z,15.76
2018-10-07T17:53:03.591Z,15.70
2018-10-07T17:55:32.615Z,15.66
2018-10-07T17:58:01.608Z,15.62
2018-10-07T18:00:30.592Z,15.61
2018-10-07T18:02:59.738Z,15.55
2018-10-07T18:05:28.694Z,15.46
2018-10-07T18:07:57.678Z,15.39
2018-10-07T18:10:26.650Z,15.29
2018-10-07T18:12:55.665Z,15.20
2018-10-07T18:15:25.551Z,15.12
2018-10-07T18:17:54.519Z,15.07
2018-10-07T18:20:23.536Z,14.97
2018-10-07T18:22:52.648Z,14.91
2018-10-07T18:25:21.751Z,14.89
2018-10-07T18:27:50.694Z,14.85
2018-10-07T18:30:19.646Z,14.74
2018-10-07T18:32:48.671Z,14.72
2018-10-07T18:35:17.664Z,14.62
2018-10-07T18:37:46.618Z,14.56
2018-10-07T18:40:15.656Z,14.54
2018-10-07T18:42:44.679Z,14.54
2018-10-07T18:45:13.631Z,14.49
2018-10-07T18:47:42.595Z,14.44
2018-10-07T18:50:11.558Z,14.45
2018-10-07T18:52:40.522Z,14.44
2018-10-07T18:55:09.461Z,14.40
2018-10-07T18:57:38.430Z,14.38
2018-10-07T19:00:09.524Z,14.34
2018-10-07T19:02:38.650Z,14.31
2018-10-07T19:05:07.539Z,14.26
2018-10-07T19:07:36.585Z,14.21
2018-10-07T19:10:06.147Z,14.20
2018-10-07T19:12:36.248Z,14.15
2018-10-07T19:15:05.314Z,14.11
2018-10-07T19:17:34.391Z,14.03
2018-10-07T19:20:03.380Z,13.93
2018-10-07T19:22:32.331Z,13.81
2018-10-07T19:25:01.294Z,13.76
2018-10-07T19:27:30.243Z,13.75
2018-10-07T19:29:59.206Z,13.77
2018-10-07T19:32:28.280Z,13.72
2018-10-07T19:34:57.235Z,13.74
2018-10-07T19:37:26.309Z,13.70
2018-10-07T19:39:55.239Z,13.67
2018-10-07T19:42:24.200Z,13.62
2018-10-07T19:44:53.469Z,13.64
2018-10-07T19:47:22.406Z,13.60
2018-10-07T19:49:51.368Z,13.56
2018-10-07T19:52:20.363Z,13.43
2018-10-07T19:54:49.317Z,13.35
2018-10-07T19:57:18.282Z,13.30
2018-10-07T19:59:47.275Z,13.21
2018-10-07T20:02:16.230Z,13.15
2018-10-07T20:04:45.230Z,12.98
2018-10-07T20:07:14.922Z,12.93
2018-10-07T20:09:43.874Z,12.92
2018-10-07T20:12:12.815Z,12.90
2018-10-07T20:14:41.774Z,12.80
2018-10-07T20:17:10.826Z,12.78
2018-10-07T20:19:39.763Z,12.62
2018-10-07T20:22:14.407Z,12.60
2018-10-07T20:24:43.370Z,12.58
2018-10-07T20:27:12.350Z,12.58
2018-10-07T20:29:41.725Z,12.59
2018-10-07T20:32:10.914Z,12.60
2018-10-07T20:34:39.872Z,12.62
2018-10-07T20:37:08.910Z,12.63
2018-10-07T20:39:37.882Z,12.61
2018-10-07T20:42:06.819Z,12.62
2018-10-07T20:44:35.776Z,12.64
2018-10-07T20:47:04.690Z,12.63
2018-10-07T20:49:33.706Z,12.61
2018-10-07T20:52:02.650Z,12.53
2018-10-07T20:54:31.659Z,12.46
2018-10-07T20:57:00.751Z,12.44
2018-10-07T20:59:29.718Z,12.41
2018-10-07T21:01:58.679Z,12.40
2018-10-07T21:04:27.615Z,12.42
2018-10-07T21:06:56.518Z,12.38
2018-10-07T21:09:25.455Z,12.31
2018-10-07T21:11:54.450Z,12.25
2018-10-07T21:14:23.402Z,12.24
2018-10-07T21:16:52.339Z,12.23
2018-10-07T21:19:21.287Z,12.21
2018-10-07T21:21:50.305Z,12.19
2018-10-07T21:24:19.312Z,12.17
2018-10-07T21:26:48.230Z,12.13
2018-10-07T21:29:17.179Z,12.14
2018-10-07T21:31:46.151Z,12.11
2018-10-07T21:34:15.086Z,12.10
2018-10-07T21:36:44.014Z,12.07
2018-10-07T21:39:12.946Z,12.00
2018-10-07T21:41:41.953Z,12.02
2018-10-07T21:44:10.868Z,12.04
2018-10-07T21:46:39.959Z,12.03
2018-10-07T21:49:09.146Z,11.96
2018-10-07T21:51:38.073Z,11.87
2018-10-07T21:54:07.194Z,11.80
2018-10-07T21:56:36.969Z,11.74
2018-10-07T21:59:06.279Z,11.70
2018-10-07T22:01:35.198Z,11.62
2018-10-07T22:04:04.137Z,11.71
2018-10-07T22:06:33.063Z,11.73
2018-10-07T22:09:01.987Z,11.71
2018-10-07T22:11:30.942Z,11.64
2018-10-07T22:13:59.901Z,11.62
2018-10-07T22:16:28.870Z,11.63
2018-10-07T22:18:57.922Z,11.59
2018-10-07T22:21:26.894Z,11.60
2018-10-07T22:23:55.838Z,11.62
2018-10-07T22:26:24.803Z,11.64
2018-10-07T22:28:53.758Z,11.66
2018-10-07T22:31:22.837Z,11.70
2018-10-07T22:33:52.419Z,11.67
2018-10-07T22:36:21.389Z,11.66
2018-10-07T22:38:50.355Z,11.61
2018-10-07T22:41:19.323Z,11.57
2018-10-07T22:43:48.311Z,11.58
2018-10-07T22:46:17.245Z,11.53
2018-10-07T22:48:46.153Z,11.52
2018-10-07T22:51:15.185Z,11.48
2018-10-07T22:53:44.099Z,11.50
2018-10-07T22:56:13.005Z,11.50
2018-10-07T22:58:42.034Z,11.49
2018-10-07T23:01:10.990Z,11.50
2018-10-07T23:03:39.893Z,11.45
2018-10-07T23:06:08.838Z,11.40
2018-10-07T23:08:37.750Z,11.36
2018-10-07T23:11:06.929Z,11.27
2018-10-07T23:13:35.818Z,11.17
2018-10-07T23:16:04.750Z,11.06
2018-10-07T23:18:33.658Z,10.97
2018-10-07T23:21:02.675Z,10.95
2018-10-07T23:23:31.624Z,10.91
2018-10-07T23:26:00.569Z,10.87
2018-10-07T23:28:29.550Z,10.86
2018-10-07T23:30:58.474Z,10.87
2018-10-07T23:33:27.417Z,10.89
2018-10-07T23:35:56.354Z,10.89
2018-10-07T23:38:25.367Z,10.93
2018-10-07T23:40:55.489Z,10.96
2018-10-07T23:43:30.746Z,10.92
2018-10-07T23:45:59.661Z,10.91
2018-10-07T23:48:28.586Z,10.89
2018-10-07T23:50:57.505Z,10.86
2018-10-07T23:53:26.463Z,10.81
2018-10-07T23:55:55.424Z,10.74
2018-10-07T23:58:24.386Z,10.76
